createdAt,value
2023-01-13T00:01:19.953Z,17.70
2023-01-13T00:03:48.542Z,17.93
2023-01-13T00:06:17.947Z,20.80
2023-01-13T00:08:49.613Z,19.53
2023-01-13T00:11:18.100Z,17.33
2023-01-13T00:13:46.181Z,15.00
2023-01-13T00:16:16.051Z,18.13
2023-01-13T00:18:44.015Z,21.03
2023-01-13T00:21:14.936Z,19.50
2023-01-13T00:23:43.151Z,23.80
2023-01-13T00:26:14.685Z,21.63
2023-01-13T00:28:42.462Z,23.83
2023-01-13T00:31:12.237Z,20.30
2023-01-13T00:33:40.808Z,27.27
2023-01-13T00:36:12.565Z,16.73
2023-01-13T00:38:42.894Z,17.60
2023-01-13T00:41:14.519Z,22.23
2023-01-13T00:43:42.323Z,11.53
2023-01-13T00:46:11.651Z,17.33
2023-01-13T00:48:39.797Z,17.67
2023-01-13T00:51:09.996Z,17.77
2023-01-13T00:53:39.713Z,20.70
2023-01-13T00:56:10.735Z,22.07
2023-01-13T00:58:39.771Z,17.97
2023-01-13T01:01:10.432Z,18.93
2023-01-13T01:03:39.783Z,18.70
2023-01-13T01:06:14.519Z,21.83
2023-01-13T01:08:42.739Z,15.07
2023-01-13T01:11:12.661Z,19.53
2023-01-13T01:13:42.868Z,24.40
2023-01-13T01:16:13.618Z,21.17
2023-01-13T01:18:43.779Z,21.20
2023-01-13T01:21:12.130Z,22.40
2023-01-13T01:23:40.848Z,15.43
2023-01-13T01:26:11.499Z,25.17
2023-01-13T01:28:41.032Z,13.20
2023-01-13T01:31:10.375Z,19.57
2023-01-13T01:33:38.133Z,22.10
2023-01-13T01:36:06.104Z,17.40
2023-01-13T01:38:33.921Z,23.33
2023-01-13T01:41:02.097Z,21.07
2023-01-13T01:43:59.832Z,21.47
2023-01-13T01:46:29.062Z,15.60
2023-01-13T01:48:59.688Z,18.30
2023-01-13T01:51:29.087Z,18.90
2023-01-13T01:53:58.585Z,24.60
2023-01-13T01:56:26.392Z,23.37
2023-01-13T01:58:55.849Z,16.20
2023-01-13T02:01:23.684Z,24.97
2023-01-13T02:03:57.411Z,17.90
2023-01-13T02:06:26.127Z,19.13
2023-01-13T02:08:54.501Z,20.47
2023-01-13T02:11:43.604Z,16.87
2023-01-13T02:14:12.789Z,22.20
2023-01-13T02:16:49.664Z,15.20
2023-01-13T02:19:39.781Z,21.30
2023-01-13T02:22:26.441Z,13.87
2023-01-13T02:25:13.768Z,19.33
2023-01-13T02:28:01.247Z,14.27
2023-01-13T02:30:59.783Z,22.20
2023-01-13T02:33:38.530Z,16.77
2023-01-13T02:36:14.268Z,16.63
2023-01-13T02:38:51.172Z,19.33
2023-01-13T02:41:45.792Z,18.37
2023-01-13T02:44:18.071Z,15.63
2023-01-13T02:46:53.123Z,15.97
2023-01-13T02:49:28.702Z,19.43
2023-01-13T02:52:04.211Z,13.87
2023-01-13T02:54:35.339Z,15.20
2023-01-13T02:57:04.595Z,20.23
2023-01-13T02:59:33.454Z,12.27
2023-01-13T03:02:03.933Z,15.87
2023-01-13T03:04:50.361Z,11.07
2023-01-13T03:07:34.758Z,12.97
2023-01-13T03:10:10.962Z,15.57
2023-01-13T03:12:44.344Z,16.00
2023-01-13T03:15:19.148Z,17.43
2023-01-13T03:17:58.970Z,12.43
2023-01-13T03:20:30.093Z,10.53
2023-01-13T03:23:04.690Z,8.03
2023-01-13T03:25:36.596Z,19.33
2023-01-13T03:28:08.013Z,16.60
2023-01-13T03:30:42.071Z,11.93
2023-01-13T03:33:16.779Z,9.83
2023-01-13T03:35:47.015Z,12.10
2023-01-13T03:38:18.816Z,9.53
2023-01-13T03:40:52.211Z,13.43
2023-01-13T03:43:42.704Z,8.37
2023-01-13T03:46:18.699Z,11.80
2023-01-13T03:48:53.977Z,8.73
2023-01-13T03:51:24.075Z,11.47
2023-01-13T03:53:56.727Z,6.03
2023-01-13T03:56:30.118Z,10.27
2023-01-13T03:59:00.101Z,12.90
2023-01-13T04:01:33.449Z,7.67
2023-01-13T04:04:07.344Z,7.17
2023-01-13T04:06:41.851Z,8.40
2023-01-13T04:09:17.318Z,9.70
2023-01-13T04:11:50.269Z,5.90
2023-01-13T04:14:22.367Z,5.83
2023-01-13T04:16:50.417Z,8.17
2023-01-13T04:19:19.620Z,7.80
2023-01-13T04:21:47.399Z,7.20
2023-01-13T04:24:15.161Z,6.83
2023-01-13T04:26:42.898Z,6.47
2023-01-13T04:29:10.661Z,9.17
2023-01-13T04:31:38.772Z,11.37
2023-01-13T04:34:06.442Z,10.93
2023-01-13T04:36:35.653Z,11.93
2023-01-13T04:39:03.508Z,7.50
2023-01-13T04:41:52.819Z,10.43
2023-01-13T04:44:20.656Z,9.07
2023-01-13T04:46:48.476Z,12.97
2023-01-13T04:49:16.387Z,13.93
2023-01-13T04:51:45.587Z,11.80
2023-01-13T04:54:13.494Z,11.10
2023-01-13T04:56:41.215Z,11.50
2023-01-13T04:59:10.286Z,7.70
2023-01-13T05:01:38.225Z,11.97
2023-01-13T05:04:06.601Z,14.07
2023-01-13T05:06:34.667Z,7.70
2023-01-13T05:09:04.064Z,14.73
2023-01-13T05:11:49.280Z,9.07
2023-01-13T05:14:34.976Z,8.17
2023-01-13T05:17:03.406Z,12.53
2023-01-13T05:19:32.878Z,15.10
2023-01-13T05:22:19.023Z,13.67
2023-01-13T05:25:05.847Z,10.73
2023-01-13T05:27:33.991Z,9.00
2023-01-13T05:30:02.258Z,13.63
2023-01-13T05:32:30.040Z,10.20
2023-01-13T05:34:57.881Z,12.63
2023-01-13T05:37:26.852Z,12.33
2023-01-13T05:40:13.784Z,8.60
2023-01-13T05:42:59.476Z,20.63
2023-01-13T05:45:27.360Z,8.57
2023-01-13T05:47:55.133Z,14.23
2023-01-13T05:50:22.812Z,10.10
2023-01-13T05:52:50.567Z,10.97
2023-01-13T05:55:19.655Z,10.47
2023-01-13T05:57:47.391Z,8.87
2023-01-13T06:00:16.316Z,9.43
2023-01-13T06:02:44.111Z,9.87
2023-01-13T06:05:11.913Z,14.27
2023-01-13T06:07:39.722Z,15.13
2023-01-13T06:10:08.774Z,5.23
2023-01-13T06:12:39.035Z,5.73
2023-01-13T06:15:07.807Z,12.60
2023-01-13T06:17:35.650Z,14.70
2023-01-13T06:20:03.447Z,9.73
2023-01-13T06:22:32.961Z,11.80
2023-01-13T06:25:00.850Z,10.07
2023-01-13T06:27:30.779Z,8.73
2023-01-13T06:30:00.098Z,6.63
2023-01-13T06:32:33.890Z,8.00
2023-01-13T06:35:05.637Z,10.10
2023-01-13T06:37:35.646Z,9.27
2023-01-13T06:40:07.521Z,10.97
2023-01-13T06:42:55.348Z,7.97
2023-01-13T06:45:26.303Z,11.63
2023-01-13T06:47:54.646Z,7.53
2023-01-13T06:50:22.397Z,12.20
2023-01-13T06:52:50.099Z,13.57
2023-01-13T06:55:17.972Z,11.77
2023-01-13T06:57:53.485Z,7.97
2023-01-13T07:00:23.114Z,7.53
2023-01-13T07:02:52.522Z,5.97
2023-01-13T07:05:21.147Z,19.37
2023-01-13T07:07:49.020Z,12.20
2023-01-13T07:10:22.393Z,17.77
2023-01-13T07:13:10.159Z,11.23
2023-01-13T07:15:37.948Z,13.67
2023-01-13T07:18:07.187Z,10.13
2023-01-13T07:20:34.962Z,11.83
2023-01-13T07:23:02.733Z,12.10
2023-01-13T07:25:32.401Z,9.80
2023-01-13T07:28:00.223Z,11.57
2023-01-13T07:30:27.950Z,10.53
2023-01-13T07:32:56.900Z,8.73
2023-01-13T07:35:26.130Z,9.00
2023-01-13T07:37:53.927Z,18.97
2023-01-13T07:40:21.753Z,11.27
2023-01-13T07:43:07.094Z,4.73
2023-01-13T07:45:34.881Z,5.67
2023-01-13T07:48:02.636Z,14.23
2023-01-13T07:50:31.828Z,10.13
2023-01-13T07:52:59.988Z,10.80
2023-01-13T07:55:28.006Z,10.73
2023-01-13T07:57:55.909Z,12.17
2023-01-13T08:00:24.582Z,7.47
2023-01-13T08:02:52.357Z,6.67
2023-01-13T08:05:20.201Z,9.77
2023-01-13T08:07:49.257Z,14.70
2023-01-13T08:10:17.574Z,10.23
2023-01-13T08:13:02.998Z,13.20
2023-01-13T08:15:32.483Z,12.90
2023-01-13T08:18:00.319Z,12.30
2023-01-13T08:20:28.220Z,8.97
2023-01-13T08:23:00.038Z,13.13
2023-01-13T08:25:28.983Z,13.60
2023-01-13T08:27:57.260Z,11.37
2023-01-13T08:30:25.158Z,14.50
2023-01-13T08:32:53.242Z,8.93
2023-01-13T08:35:21.187Z,8.60
2023-01-13T08:37:50.354Z,17.27
2023-01-13T08:40:20.780Z,18.03
2023-01-13T08:42:48.943Z,8.60
2023-01-13T08:45:16.732Z,12.47
2023-01-13T08:47:44.494Z,14.10
2023-01-13T08:50:12.868Z,11.63
2023-01-13T08:52:40.723Z,8.00
2023-01-13T08:55:09.290Z,12.77
2023-01-13T08:57:38.712Z,13.03
2023-01-13T09:00:09.406Z,14.07
2023-01-13T09:02:38.425Z,11.27
2023-01-13T09:05:07.425Z,14.83
2023-01-13T09:07:38.761Z,13.57
2023-01-13T09:10:08.922Z,19.90
2023-01-13T09:12:55.611Z,16.97
2023-01-13T09:15:23.561Z,11.43
2023-01-13T09:17:51.532Z,16.07
2023-01-13T09:20:19.851Z,12.27
2023-01-13T09:22:47.580Z,9.87
2023-01-13T09:25:15.311Z,10.07
2023-01-13T09:27:44.351Z,14.07
2023-01-13T09:30:12.902Z,10.63
2023-01-13T09:32:40.764Z,9.43
2023-01-13T09:35:08.886Z,10.93
2023-01-13T09:37:39.055Z,12.90
2023-01-13T09:40:11.099Z,10.37
2023-01-13T09:43:05.111Z,15.27
2023-01-13T09:45:38.535Z,10.87
2023-01-13T09:48:13.529Z,10.90
2023-01-13T09:51:01.911Z,12.93
2023-01-13T09:53:34.930Z,10.60
2023-01-13T09:56:02.991Z,12.47
2023-01-13T09:58:34.630Z,8.97
2023-01-13T10:01:15.845Z,10.87
2023-01-13T10:03:43.791Z,9.77
2023-01-13T10:06:16.695Z,11.57
2023-01-13T10:08:46.143Z,10.07
2023-01-13T10:11:34.731Z,13.00
2023-01-13T10:14:11.677Z,8.77
2023-01-13T10:16:45.631Z,17.00
2023-01-13T10:19:19.764Z,13.47
2023-01-13T10:22:22.840Z,11.00
2023-01-13T10:25:29.288Z,14.83
2023-01-13T10:28:04.303Z,6.30
2023-01-13T10:30:39.986Z,8.40
2023-01-13T10:33:13.172Z,10.43
2023-01-13T10:35:56.563Z,7.20
2023-01-13T10:38:26.828Z,12.00
2023-01-13T10:40:57.145Z,5.77
2023-01-13T10:43:25.941Z,9.93
2023-01-13T10:46:04.379Z,6.63
2023-01-13T10:48:39.300Z,8.17
2023-01-13T10:51:28.880Z,10.37
2023-01-13T10:53:59.985Z,12.30
2023-01-13T10:56:30.890Z,16.77
2023-01-13T10:59:16.390Z,8.40
2023-01-13T11:02:03.887Z,7.10
2023-01-13T11:04:38.439Z,9.97
2023-01-13T11:07:18.824Z,8.53
2023-01-13T11:09:46.892Z,10.83
2023-01-13T11:12:31.640Z,8.57
2023-01-13T11:15:03.159Z,11.20
2023-01-13T11:17:40.525Z,8.70
2023-01-13T11:20:20.125Z,8.37
2023-01-13T11:22:51.299Z,5.97
2023-01-13T11:25:24.536Z,9.13
2023-01-13T11:27:58.862Z,14.13
2023-01-13T11:30:34.074Z,4.87
2023-01-13T11:33:28.106Z,11.00
2023-01-13T11:36:06.828Z,8.50
2023-01-13T11:38:41.670Z,6.60
2023-01-13T11:41:17.510Z,5.50
2023-01-13T11:43:51.016Z,9.47
2023-01-13T11:46:18.966Z,7.93
2023-01-13T11:48:48.115Z,7.37
2023-01-13T11:51:26.523Z,7.47
2023-01-13T11:54:11.914Z,6.67
2023-01-13T11:56:56.886Z,7.87
2023-01-13T11:59:45.997Z,7.63
2023-01-13T12:02:34.178Z,13.00
2023-01-13T12:05:09.885Z,12.33
2023-01-13T12:07:45.010Z,11.03
2023-01-13T12:10:25.960Z,10.07
2023-01-13T12:13:04.479Z,8.10
2023-01-13T12:15:59.906Z,13.57
2023-01-13T12:18:52.503Z,7.47
2023-01-13T12:21:23.630Z,10.63
2023-01-13T12:24:07.083Z,9.40
2023-01-13T12:26:39.933Z,9.97
2023-01-13T12:29:12.428Z,6.87
2023-01-13T12:31:42.277Z,7.40
2023-01-13T12:34:27.725Z,9.00
2023-01-13T12:37:03.569Z,9.00
2023-01-13T12:39:44.371Z,6.27
2023-01-13T12:42:34.830Z,6.57
2023-01-13T12:45:24.998Z,5.33
2023-01-13T12:47:52.929Z,5.30
2023-01-13T12:50:42.233Z,7.87
2023-01-13T12:53:36.714Z,6.23
2023-01-13T12:56:36.661Z,8.77
2023-01-13T12:59:48.908Z,10.73
2023-01-13T13:02:43.813Z,12.90
2023-01-13T13:05:37.729Z,11.80
2023-01-13T13:08:12.199Z,9.40
2023-01-13T13:10:48.469Z,10.10
2023-01-13T13:13:39.939Z,9.27
2023-01-13T13:16:50.295Z,7.23
2023-01-13T13:19:49.761Z,10.73
2023-01-13T13:22:39.378Z,8.83
2023-01-13T13:25:25.498Z,8.33
2023-01-13T13:28:14.674Z,6.30
2023-01-13T13:30:50.153Z,13.13
2023-01-13T13:33:35.344Z,5.27
2023-01-13T13:36:18.082Z,10.63
2023-01-13T13:39:21.371Z,8.53
2023-01-13T13:42:10.188Z,7.93
2023-01-13T13:44:59.635Z,6.83
2023-01-13T13:47:37.669Z,7.63
2023-01-13T13:50:13.695Z,9.37
2023-01-13T13:52:45.824Z,11.07
2023-01-13T13:55:18.817Z,8.27
2023-01-13T13:57:48.760Z,11.37
2023-01-13T14:00:27.263Z,7.97
2023-01-13T14:02:58.440Z,15.80
2023-01-13T14:05:28.889Z,7.80
2023-01-13T14:08:00.773Z,8.00
2023-01-13T14:10:33.786Z,6.30
2023-01-13T14:13:04.006Z,9.33
2023-01-13T14:15:36.283Z,8.03
2023-01-13T14:18:07.163Z,10.27
2023-01-13T14:20:36.877Z,7.33
2023-01-13T14:23:05.906Z,11.90
2023-01-13T14:25:39.445Z,6.83
2023-01-13T14:28:22.664Z,11.17
2023-01-13T14:30:53.125Z,4.97
2023-01-13T14:33:35.371Z,12.37
2023-01-13T14:36:08.221Z,10.10
2023-01-13T14:38:36.016Z,9.17
2023-01-13T14:41:20.035Z,9.33
2023-01-13T14:43:50.031Z,9.13
2023-01-13T14:46:21.089Z,11.83
2023-01-13T14:48:51.572Z,9.10
2023-01-13T14:51:25.600Z,7.90
2023-01-13T14:53:54.547Z,14.33
2023-01-13T14:56:47.045Z,9.10
2023-01-13T14:59:34.585Z,13.07
2023-01-13T15:02:24.401Z,9.50
2023-01-13T15:04:54.172Z,10.97
2023-01-13T15:07:27.114Z,11.30
2023-01-13T15:09:56.477Z,6.63
2023-01-13T15:12:30.436Z,12.60
2023-01-13T15:14:58.237Z,9.07
2023-01-13T15:17:27.387Z,9.17
2023-01-13T15:19:55.142Z,4.47
2023-01-13T15:22:22.928Z,6.53
2023-01-13T15:24:51.194Z,8.00
2023-01-13T15:27:21.456Z,8.90
2023-01-13T15:29:49.234Z,6.33
2023-01-13T15:32:20.333Z,8.47
2023-01-13T15:34:49.728Z,7.80
2023-01-13T15:37:19.476Z,5.63
2023-01-13T15:39:47.343Z,8.43
2023-01-13T15:42:32.674Z,6.37
2023-01-13T15:45:18.036Z,10.67
2023-01-13T15:47:46.278Z,5.23
2023-01-13T15:50:17.548Z,8.50
2023-01-13T15:52:45.423Z,6.67
2023-01-13T15:55:13.148Z,9.33
2023-01-13T15:57:46.377Z,8.80
2023-01-13T16:00:17.738Z,8.20
2023-01-13T16:02:45.515Z,6.57
2023-01-13T16:05:13.554Z,7.87
2023-01-13T16:07:46.288Z,6.47
2023-01-13T16:10:18.004Z,10.63
2023-01-13T16:12:45.845Z,5.53
2023-01-13T16:15:17.128Z,9.03
2023-01-13T16:17:46.657Z,6.97
2023-01-13T16:20:15.797Z,9.67
2023-01-13T16:22:45.555Z,7.57
2023-01-13T16:25:17.917Z,7.57
2023-01-13T16:27:45.893Z,10.30
2023-01-13T16:30:23.857Z,5.87
2023-01-13T16:32:52.144Z,10.00
2023-01-13T16:35:20.234Z,4.10
2023-01-13T16:37:49.709Z,10.63
2023-01-13T16:40:23.389Z,6.43
2023-01-13T16:42:51.525Z,6.87
2023-01-13T16:45:19.983Z,3.97
2023-01-13T16:47:47.784Z,5.77
2023-01-13T16:50:28.343Z,4.47
2023-01-13T16:52:57.535Z,4.83
2023-01-13T16:55:25.325Z,4.63
2023-01-13T16:57:53.123Z,6.10
2023-01-13T17:00:21.585Z,12.93
2023-01-13T17:02:49.926Z,7.33
2023-01-13T17:05:17.943Z,11.90
2023-01-13T17:07:47.376Z,6.73
2023-01-13T17:10:19.365Z,7.93
2023-01-13T17:12:50.444Z,11.50
2023-01-13T17:15:20.412Z,7.77
2023-01-13T17:17:52.033Z,8.73
2023-01-13T17:20:20.875Z,7.87
2023-01-13T17:22:54.868Z,10.63
2023-01-13T17:25:27.363Z,8.23
2023-01-13T17:27:55.059Z,11.37
2023-01-13T17:30:23.109Z,5.27
2023-01-13T17:32:50.828Z,7.63
2023-01-13T17:35:22.917Z,10.07
2023-01-13T17:37:50.769Z,5.73
2023-01-13T17:40:19.166Z,8.70
2023-01-13T17:42:48.369Z,4.97
2023-01-13T17:45:16.547Z,5.97
2023-01-13T17:47:47.289Z,9.63
2023-01-13T17:50:15.300Z,8.30
2023-01-13T17:52:46.527Z,8.60
2023-01-13T17:55:14.288Z,7.97
2023-01-13T17:57:42.127Z,7.00
2023-01-13T18:00:13.099Z,8.23
2023-01-13T18:02:40.992Z,7.43
2023-01-13T18:05:09.412Z,9.73
2023-01-13T18:07:37.250Z,6.47
2023-01-13T18:10:05.473Z,5.33
2023-01-13T18:12:34.878Z,6.77
2023-01-13T18:15:02.848Z,7.60
2023-01-13T18:17:31.977Z,5.90
2023-01-13T18:20:17.158Z,8.93
2023-01-13T18:23:02.361Z,5.50
2023-01-13T18:25:47.582Z,8.43
2023-01-13T18:28:16.460Z,9.47
2023-01-13T18:30:45.193Z,4.50
2023-01-13T18:33:14.372Z,7.93
2023-01-13T18:35:42.091Z,3.83
2023-01-13T18:38:11.536Z,5.30
2023-01-13T18:40:39.284Z,3.57
2023-01-13T18:43:06.015Z,3.93
2023-01-13T18:45:33.730Z,6.93
2023-01-13T18:48:02.978Z,5.43
2023-01-13T18:50:34.590Z,5.70
2023-01-13T18:53:02.654Z,5.07
2023-01-13T18:55:30.463Z,11.63
2023-01-13T18:57:58.899Z,6.97
2023-01-13T19:00:27.970Z,4.47
2023-01-13T19:05:36.255Z,6.07
2023-01-13T19:08:04.717Z,7.60
2023-01-13T19:10:32.893Z,9.63
2023-01-13T19:13:01.225Z,7.17
2023-01-13T19:15:29.032Z,4.30
2023-01-13T19:17:56.851Z,4.63
2023-01-13T19:20:25.219Z,9.43
2023-01-13T19:22:54.947Z,7.57
2023-01-13T19:25:22.775Z,6.00
2023-01-13T19:27:50.510Z,7.27
2023-01-13T19:30:18.733Z,7.20
2023-01-13T19:32:46.467Z,7.03
2023-01-13T19:35:17.450Z,8.87
2023-01-13T19:37:45.570Z,6.10
2023-01-13T19:40:15.155Z,5.63
2023-01-13T19:43:01.544Z,6.83
2023-01-13T19:45:31.117Z,9.50
2023-01-13T19:48:01.776Z,6.07
2023-01-13T19:50:29.936Z,6.47
2023-01-13T19:52:57.713Z,8.93
2023-01-13T19:55:26.878Z,5.83
2023-01-13T19:57:54.639Z,7.07
2023-01-13T20:00:23.766Z,11.30
2023-01-13T20:02:53.300Z,8.80
2023-01-13T20:05:25.738Z,5.67
2023-01-13T20:07:54.005Z,9.13
2023-01-13T20:10:23.793Z,5.43
2023-01-13T20:12:52.877Z,5.90
2023-01-13T20:15:20.690Z,8.77
2023-01-13T20:17:48.751Z,5.00
2023-01-13T20:20:18.553Z,6.67
2023-01-13T20:22:46.361Z,7.23
2023-01-13T20:25:16.763Z,8.30
2023-01-13T20:27:45.101Z,12.60
2023-01-13T20:30:14.654Z,9.70
2023-01-13T20:32:43.040Z,5.57
2023-01-13T20:35:11.826Z,8.30
2023-01-13T20:37:40.224Z,6.53
2023-01-13T20:40:10.083Z,5.90
2023-01-13T20:42:44.672Z,4.43
2023-01-13T20:45:17.484Z,8.43
2023-01-13T20:47:46.039Z,5.77
2023-01-13T20:50:14.335Z,5.70
2023-01-13T20:52:42.222Z,9.33
2023-01-13T20:55:11.118Z,6.33
2023-01-13T20:57:38.949Z,7.43
2023-01-13T21:00:08.120Z,5.53
2023-01-13T21:02:37.707Z,6.50
2023-01-13T21:05:05.986Z,7.13
2023-01-13T21:07:33.766Z,5.63
2023-01-13T21:10:01.676Z,9.00
2023-01-13T21:12:46.816Z,7.13
2023-01-13T21:15:21.919Z,9.30
2023-01-13T21:18:10.302Z,10.63
2023-01-13T21:20:39.396Z,6.67
2023-01-13T21:23:08.387Z,7.43
2023-01-13T21:25:39.437Z,7.43
2023-01-13T21:28:08.589Z,5.23
2023-01-13T21:30:38.173Z,9.77
2023-01-13T21:33:07.431Z,5.90
2023-01-13T21:35:39.076Z,10.50
2023-01-13T21:38:06.842Z,7.80
2023-01-13T21:40:34.602Z,9.73
2023-01-13T21:43:19.932Z,4.43
2023-01-13T21:46:05.704Z,8.60
2023-01-13T21:48:34.933Z,9.97
2023-01-13T21:51:02.781Z,8.17
2023-01-13T21:53:30.726Z,4.43
2023-01-13T21:55:58.577Z,5.87
2023-01-13T21:58:26.356Z,7.60
2023-01-13T22:00:54.317Z,10.07
2023-01-13T22:03:22.342Z,7.93
2023-01-13T22:05:57.365Z,10.90
2023-01-13T22:08:25.094Z,5.80
2023-01-13T22:10:58.399Z,10.00
2023-01-13T22:13:44.598Z,5.13
2023-01-13T22:16:12.929Z,7.47
2023-01-13T22:18:40.698Z,6.00
2023-01-13T22:21:10.972Z,5.43
2023-01-13T22:23:38.740Z,4.53
2023-01-13T22:26:08.432Z,5.70
2023-01-13T22:28:40.819Z,8.40
2023-01-13T22:31:09.376Z,5.77
2023-01-13T22:33:37.100Z,8.20
2023-01-13T22:36:05.173Z,7.30
2023-01-13T22:38:35.014Z,7.13
2023-01-13T22:41:04.184Z,5.63
2023-01-13T22:43:32.266Z,6.90
2023-01-13T22:46:00.891Z,11.77
2023-01-13T22:48:28.925Z,4.83
2023-01-13T22:50:56.744Z,8.03
2023-01-13T22:53:24.543Z,6.30
2023-01-13T22:55:57.415Z,7.77
2023-01-13T22:58:25.903Z,10.20
2023-01-13T23:00:54.843Z,4.73
2023-01-13T23:03:23.270Z,6.37
2023-01-13T23:05:57.909Z,8.13
2023-01-13T23:08:25.668Z,8.37
2023-01-13T23:10:53.573Z,10.93
2023-01-13T23:13:22.623Z,10.37
2023-01-13T23:15:50.722Z,7.37
2023-01-13T23:18:18.517Z,9.67
2023-01-13T23:20:46.206Z,5.37
2023-01-13T23:23:13.924Z,4.67
2023-01-13T23:25:49.286Z,6.43
2023-01-13T23:28:17.108Z,7.17
2023-01-13T23:30:46.253Z,8.40
2023-01-13T23:33:13.993Z,9.97
2023-01-13T23:35:41.936Z,9.23
2023-01-13T23:38:10.185Z,8.50
2023-01-13T23:40:38.401Z,5.07
2023-01-13T23:43:06.219Z,6.77
2023-01-13T23:45:33.959Z,7.07
2023-01-13T23:48:03.099Z,6.90
2023-01-13T23:50:30.830Z,8.47
2023-01-13T23:52:58.563Z,8.87
2023-01-13T23:55:27.074Z,8.27
2023-01-13T23:57:54.781Z,8.47
